createdAt,value
2019-02-02T00:02:27.661Z,50.33
2019-02-02T00:05:02.506Z,49.00
2019-02-02T00:07:33.555Z,50.10
2019-02-02T00:10:06.131Z,49.43
2019-02-02T00:12:34.463Z,51.47
2019-02-02T00:15:14.208Z,51.10
2019-02-02T00:17:45.658Z,51.07
2019-02-02T00:20:34.055Z,50.97
2019-02-02T00:23:08.415Z,52.10
2019-02-02T00:26:00.104Z,51.33
2019-02-02T00:28:53.061Z,49.13
2019-02-02T00:31:23.731Z,52.53
2019-02-02T00:34:05.741Z,49.43
2019-02-02T00:36:35.987Z,50.03
2019-02-02T00:39:13.252Z,52.23
2019-02-02T00:41:56.771Z,52.53
2019-02-02T00:44:36.177Z,51.57
2019-02-02T00:47:09.533Z,51.27
2019-02-02T00:49:49.856Z,51.27
2019-02-02T00:52:27.355Z,51.43
2019-02-02T00:55:02.620Z,54.53
2019-02-02T00:57:53.126Z,50.83
2019-02-02T01:00:38.068Z,50.13
2019-02-02T01:03:08.674Z,51.53
2019-02-02T01:05:41.502Z,51.03
2019-02-02T01:08:19.463Z,50.63
2019-02-02T01:10:54.250Z,50.73
2019-02-02T01:13:27.570Z,51.50
2019-02-02T01:15:58.040Z,48.70
2019-02-02T01:18:38.912Z,51.87
2019-02-02T01:21:12.289Z,49.47
2019-02-02T01:23:45.774Z,49.73
2019-02-02T01:26:20.200Z,49.47
2019-02-02T01:29:01.593Z,48.77
2019-02-02T01:31:41.793Z,50.00
2019-02-02T01:34:28.630Z,49.77
2019-02-02T01:37:42.293Z,50.40
2019-02-02T01:40:15.269Z,51.47
2019-02-02T01:43:12.728Z,51.33
2019-02-02T01:46:32.304Z,50.97
2019-02-02T01:56:15.901Z,49.13
2019-02-02T01:58:44.029Z,52.47
2019-02-02T02:01:11.851Z,51.43
2019-02-02T02:03:39.552Z,51.97
2019-02-02T02:06:07.281Z,51.70
2019-02-02T02:08:35.051Z,54.03
2019-02-02T02:11:02.935Z,53.53
2019-02-02T02:13:30.631Z,52.50
2019-02-02T02:15:58.397Z,53.80
2019-02-02T02:18:26.187Z,53.07
2019-02-02T02:20:54.344Z,54.30
2019-02-02T02:23:21.773Z,54.57
2019-02-02T02:25:49.282Z,52.97
2019-02-02T02:28:27.521Z,54.10
2019-02-02T02:30:47.394Z,52.50
2019-02-02T02:33:15.021Z,53.10
2019-02-02T02:35:42.541Z,53.30
2019-02-02T02:38:10.251Z,52.87
2019-02-02T02:40:37.971Z,54.73
2019-02-02T02:43:05.728Z,55.43
2019-02-02T02:45:33.680Z,55.70
2019-02-02T02:48:01.337Z,53.27
2019-02-02T02:50:29.019Z,54.37
2019-02-02T02:52:56.810Z,54.83
2019-02-02T02:55:24.559Z,54.77
2019-02-02T02:57:52.539Z,54.20
2019-02-02T03:00:21.840Z,55.17
2019-02-02T03:02:49.365Z,56.43
2019-02-02T03:05:17.638Z,54.60
2019-02-02T03:07:45.988Z,55.70
2019-02-02T03:10:15.279Z,58.73
2019-02-02T03:12:43.116Z,56.10
2019-02-02T03:15:11.471Z,54.67
2019-02-02T03:17:38.918Z,56.60
2019-02-02T03:20:07.425Z,55.90
2019-02-02T03:22:35.302Z,54.57
2019-02-02T03:25:03.813Z,56.50
2019-02-02T03:27:31.578Z,56.30
2019-02-02T03:29:59.338Z,56.67
2019-02-02T03:32:27.158Z,57.00
2019-02-02T03:34:54.832Z,56.37
2019-02-02T03:37:22.275Z,56.73
2019-02-02T03:39:50.006Z,58.00
2019-02-02T03:42:17.714Z,55.83
2019-02-02T03:44:45.129Z,53.83
2019-02-02T03:47:12.905Z,57.83
2019-02-02T03:49:40.650Z,56.47
2019-02-02T03:52:08.438Z,55.77
2019-02-02T03:54:36.188Z,55.03
2019-02-02T03:57:03.771Z,55.77
2019-02-02T03:59:31.777Z,55.27
2019-02-02T04:01:59.490Z,55.67
2019-02-02T04:04:27.301Z,54.97
2019-02-02T04:06:55.051Z,55.80
2019-02-02T04:09:22.871Z,56.30
2019-02-02T04:11:50.613Z,57.27
2019-02-02T04:14:18.458Z,55.00
2019-02-02T04:16:46.163Z,55.87
2019-02-02T04:19:13.952Z,54.90
2019-02-02T04:21:41.628Z,56.70
2019-02-02T04:24:09.344Z,54.97
2019-02-02T04:26:37.112Z,55.53
2019-02-02T04:29:04.670Z,57.00
2019-02-02T04:31:32.667Z,56.77
2019-02-02T04:34:00.413Z,58.07
2019-02-02T04:36:27.890Z,56.80
2019-02-02T04:38:55.716Z,56.67
2019-02-02T04:41:23.490Z,56.43
2019-02-02T04:43:51.423Z,57.30
2019-02-02T04:46:19.221Z,59.03
2019-02-02T04:48:46.877Z,58.73
2019-02-02T04:51:14.433Z,57.40
2019-02-02T04:53:42.282Z,57.63
2019-02-02T04:56:10.067Z,58.77
2019-02-02T04:58:37.624Z,57.97
2019-02-02T05:01:05.093Z,57.27
2019-02-02T05:03:32.893Z,56.90
2019-02-02T05:06:03.313Z,56.80
2019-02-02T05:08:31.180Z,58.80
2019-02-02T05:10:59.133Z,60.07
2019-02-02T05:13:26.792Z,56.13
2019-02-02T05:15:56.904Z,58.67
2019-02-02T05:18:24.748Z,58.80
2019-02-02T05:20:52.520Z,55.83
2019-02-02T05:23:20.369Z,59.43
2019-02-02T05:25:48.349Z,58.23
2019-02-02T05:28:16.036Z,58.13
2019-02-02T05:30:43.703Z,57.57
2019-02-02T05:33:11.703Z,56.70
2019-02-02T05:35:39.715Z,57.77
2019-02-02T05:38:07.762Z,57.23
2019-02-02T05:40:35.776Z,59.27
2019-02-02T05:43:05.259Z,58.10
2019-02-02T05:45:33.244Z,61.90
2019-02-02T05:48:00.933Z,57.77
2019-02-02T05:50:28.944Z,57.73
2019-02-02T05:52:56.938Z,59.53
2019-02-02T05:55:25.287Z,59.77
2019-02-02T05:57:53.283Z,60.23
2019-02-02T06:00:41.526Z,58.37
2019-02-02T06:03:09.467Z,56.97
2019-02-02T06:05:37.436Z,59.47
2019-02-02T06:08:05.131Z,59.80
2019-02-02T06:10:34.449Z,59.47
2019-02-02T06:13:02.209Z,59.47
2019-02-02T06:15:30.505Z,60.53
2019-02-02T06:17:58.221Z,60.47
2019-02-02T06:20:29.381Z,59.40
2019-02-02T06:22:57.390Z,59.03
2019-02-02T06:25:25.357Z,56.97
2019-02-02T06:27:55.400Z,59.70
2019-02-02T06:30:23.681Z,57.87
2019-02-02T06:32:51.478Z,59.23
2019-02-02T06:35:19.720Z,59.80
2019-02-02T06:37:47.805Z,59.20
2019-02-02T06:40:14.611Z,61.03
2019-02-02T06:42:42.747Z,60.63
2019-02-02T06:45:17.216Z,59.73
2019-02-02T06:47:45.031Z,58.90
2019-02-02T06:50:14.268Z,58.47
2019-02-02T06:52:42.362Z,59.67
2019-02-02T06:55:11.158Z,59.90
2019-02-02T06:57:39.941Z,61.27
2019-02-02T07:00:16.251Z,61.27
2019-02-02T07:02:40.344Z,63.47
2019-02-02T07:05:08.648Z,61.57
2019-02-02T07:07:39.754Z,62.57
2019-02-02T07:10:09.280Z,60.30
2019-02-02T07:12:37.655Z,61.97
2019-02-02T07:15:09.733Z,59.97
2019-02-02T07:17:45.703Z,61.77
2019-02-02T07:20:21.567Z,59.07
2019-02-02T07:27:01.185Z,58.37
2019-02-02T07:29:30.062Z,59.60
2019-02-02T07:32:47.655Z,61.50
2019-02-02T07:46:20.193Z,58.53
2019-02-02T07:48:49.216Z,60.87
2019-02-02T07:51:18.477Z,64.03
2019-02-02T07:53:51.223Z,60.67
2019-02-02T07:56:21.797Z,60.80
2019-02-02T08:01:58.576Z,60.70
2019-02-02T08:04:36.275Z,61.97
2019-02-02T08:07:05.749Z,59.20
2019-02-02T08:09:36.276Z,62.40
2019-02-02T08:12:04.733Z,61.77
2019-02-02T08:14:36.527Z,61.23
2019-02-02T08:17:04.710Z,63.47
2019-02-02T08:19:34.806Z,64.43
2019-02-02T08:22:02.973Z,66.23
2019-02-02T08:24:31.186Z,61.87
2019-02-02T08:27:01.117Z,64.47
2019-02-02T08:29:29.414Z,65.57
2019-02-02T08:32:06.803Z,66.37
2019-02-02T08:34:35.049Z,69.67
2019-02-02T08:37:03.850Z,67.07
2019-02-02T08:39:34.418Z,70.03
2019-02-02T08:42:02.375Z,68.77
2019-02-02T08:44:31.307Z,66.33
2019-02-02T08:46:59.378Z,68.83
2019-02-02T08:49:31.053Z,70.00
2019-02-02T08:52:02.775Z,71.10
2019-02-02T08:54:31.040Z,70.27
2019-02-02T08:56:59.576Z,72.03
2019-02-02T08:59:27.991Z,69.33
2019-02-02T09:01:55.820Z,70.00
2019-02-02T09:04:23.933Z,68.80
2019-02-02T09:06:52.400Z,70.07
2019-02-02T09:09:23.666Z,70.17
2019-02-02T09:11:52.249Z,68.27
2019-02-02T09:14:21.110Z,71.43
2019-02-02T09:16:49.857Z,74.27
2019-02-02T09:19:18.358Z,69.43
2019-02-02T09:21:46.611Z,70.13
2019-02-02T09:24:26.739Z,70.30
2019-02-02T09:26:57.863Z,65.33
2019-02-02T09:29:25.793Z,68.10
2019-02-02T09:31:54.400Z,67.60
2019-02-02T09:34:22.392Z,72.40
2019-02-02T09:36:50.643Z,74.47
2019-02-02T09:39:18.717Z,70.37
2019-02-02T09:41:47.121Z,70.47
2019-02-02T09:44:15.670Z,69.37
2019-02-02T09:46:45.862Z,70.73
2019-02-02T09:49:14.668Z,71.27
2019-02-02T09:51:42.815Z,69.40
2019-02-02T09:54:11.189Z,69.27
2019-02-02T09:56:39.498Z,71.23
2019-02-02T09:59:09.769Z,69.77
2019-02-02T10:01:37.092Z,67.40
2019-02-02T10:04:07.777Z,70.83
2019-02-02T10:06:36.066Z,68.47
2019-02-02T10:09:07.468Z,69.67
2019-02-02T10:11:35.437Z,69.10
2019-02-02T10:14:03.973Z,68.67
2019-02-02T10:16:31.808Z,71.63
2019-02-02T10:19:00.949Z,70.73
2019-02-02T10:21:29.439Z,68.93
2019-02-02T10:23:57.888Z,70.97
2019-02-02T10:26:26.205Z,71.30
2019-02-02T10:29:01.657Z,69.07
2019-02-02T10:31:39.111Z,72.10
2019-02-02T10:34:23.619Z,69.53
2019-02-02T10:36:52.019Z,68.80
2019-02-02T10:42:06.087Z,70.37
2019-02-02T10:44:33.769Z,70.60
2019-02-02T10:47:02.790Z,74.57
2019-02-02T10:49:31.142Z,71.77
2019-02-02T10:51:59.147Z,70.93
2019-02-02T10:54:28.893Z,74.70
2019-02-02T10:56:58.731Z,71.07
2019-02-02T10:59:26.920Z,69.57
2019-02-02T11:01:57.052Z,71.10
2019-02-02T11:04:24.991Z,73.07
2019-02-02T11:06:52.918Z,73.50
2019-02-02T11:09:25.323Z,70.33
2019-02-02T11:11:52.544Z,73.23
2019-02-02T11:14:20.947Z,73.27
2019-02-02T11:16:48.811Z,72.07
2019-02-02T11:19:17.750Z,72.67
2019-02-02T11:21:54.161Z,71.70
2019-02-02T11:24:22.317Z,72.57
2019-02-02T11:26:50.884Z,72.77
2019-02-02T11:29:19.622Z,77.00
2019-02-02T11:32:02.304Z,71.27
2019-02-02T11:34:21.256Z,73.10
2019-02-02T11:36:49.137Z,75.20
2019-02-02T11:39:17.333Z,71.80
2019-02-02T11:41:46.145Z,74.60
2019-02-02T11:44:14.353Z,75.00
2019-02-02T11:46:42.900Z,78.70
2019-02-02T11:49:10.805Z,76.60
2019-02-02T11:51:39.104Z,77.40
2019-02-02T11:54:07.323Z,78.70
2019-02-02T11:56:35.482Z,77.20
2019-02-02T11:59:03.303Z,79.80
2019-02-02T12:01:31.167Z,77.30
2019-02-02T12:03:59.946Z,78.20
2019-02-02T12:06:28.225Z,79.03
2019-02-02T12:08:56.705Z,79.60
2019-02-02T12:11:28.875Z,77.10
2019-02-02T12:13:57.021Z,79.70
2019-02-02T12:16:28.299Z,76.30
2019-02-02T12:18:56.726Z,79.63
2019-02-02T12:21:26.849Z,78.73
2019-02-02T12:23:58.751Z,78.67
2019-02-02T12:26:27.045Z,76.53
2019-02-02T12:28:55.571Z,80.97
2019-02-02T12:31:23.830Z,79.30
2019-02-02T12:33:51.966Z,81.77
2019-02-02T12:36:20.291Z,79.80
2019-02-02T12:38:48.966Z,80.57
2019-02-02T12:41:16.911Z,83.27
2019-02-02T12:43:44.675Z,78.80
2019-02-02T12:46:12.902Z,79.17
2019-02-02T12:48:41.535Z,78.00
2019-02-02T12:51:10.098Z,80.17
2019-02-02T12:53:40.803Z,80.13
2019-02-02T12:56:18.021Z,78.63
2019-02-02T12:58:46.354Z,82.57
2019-02-02T13:01:14.810Z,82.93
2019-02-02T13:03:43.099Z,86.57
2019-02-02T13:06:11.073Z,81.80
2019-02-02T13:08:41.765Z,81.47
2019-02-02T13:11:17.654Z,81.93
2019-02-02T13:13:46.576Z,81.23
2019-02-02T13:16:24.437Z,80.10
2019-02-02T13:18:52.977Z,79.03
2019-02-02T13:21:21.504Z,77.20
2019-02-02T13:23:50.217Z,79.77
2019-02-02T13:26:19.107Z,80.90
2019-02-02T13:28:56.648Z,81.23
2019-02-02T13:31:25.024Z,79.53
2019-02-02T13:33:53.025Z,80.73
2019-02-02T13:36:30.444Z,78.33
2019-02-02T13:38:58.982Z,80.30
2019-02-02T13:41:28.534Z,78.33
2019-02-02T13:44:02.420Z,78.57
2019-02-02T13:46:38.423Z,79.03
2019-02-02T13:49:21.999Z,79.33
2019-02-02T13:51:51.653Z,79.10
2019-02-02T13:54:24.070Z,77.87
2019-02-02T13:56:53.328Z,79.23
2019-02-02T13:59:24.754Z,81.47
2019-02-02T14:01:53.449Z,80.53
2019-02-02T14:04:21.879Z,81.70
2019-02-02T14:06:50.435Z,80.33
2019-02-02T14:10:03.758Z,83.07
2019-02-02T14:12:37.175Z,82.93
2019-02-02T14:15:08.862Z,78.80
2019-02-02T14:17:37.917Z,83.13
2019-02-02T14:20:07.127Z,79.67
2019-02-02T14:22:35.621Z,80.57
2019-02-02T14:25:05.508Z,83.10
2019-02-02T14:27:33.654Z,79.67
2019-02-02T14:30:01.868Z,82.10
2019-02-02T14:32:30.310Z,84.10
2019-02-02T14:35:01.247Z,84.20
2019-02-02T14:37:47.461Z,79.93
2019-02-02T14:40:20.317Z,82.80
2019-02-02T14:42:56.170Z,80.93
2019-02-02T14:45:27.226Z,79.17
2019-02-02T14:47:55.917Z,82.47
2019-02-02T14:50:24.510Z,83.20
2019-02-02T14:52:53.208Z,81.33
2019-02-02T14:55:30.090Z,85.93
2019-02-02T14:57:58.258Z,84.07
2019-02-02T15:00:27.743Z,84.27
2019-02-02T15:02:55.894Z,82.47
2019-02-02T15:05:27.596Z,84.37
2019-02-02T15:07:56.177Z,86.77
2019-02-02T15:10:24.953Z,84.67
2019-02-02T15:16:17.867Z,85.80
2019-02-02T15:18:52.245Z,82.73
2019-02-02T15:21:22.755Z,85.03
2019-02-02T15:23:57.327Z,88.03
2019-02-02T15:26:26.121Z,87.13
2019-02-02T15:28:58.076Z,84.47
2019-02-02T15:31:30.458Z,82.97
2019-02-02T15:34:02.162Z,88.87
2019-02-02T15:36:31.295Z,84.43
2019-02-02T15:39:01.333Z,85.40
2019-02-02T15:41:33.553Z,85.63
2019-02-02T15:44:07.770Z,84.83
2019-02-02T15:46:48.769Z,84.87
2019-02-02T15:49:12.988Z,84.83
2019-02-02T15:51:47.211Z,85.77
2019-02-02T15:54:15.530Z,82.87
2019-02-02T15:56:47.204Z,85.40
2019-02-02T15:59:17.308Z,86.33
2019-02-02T16:01:45.411Z,87.83
2019-02-02T16:04:13.683Z,85.60
2019-02-02T16:06:42.374Z,85.00
2019-02-02T16:09:10.793Z,86.10
2019-02-02T16:11:39.472Z,84.23
2019-02-02T16:14:10.698Z,86.40
2019-02-02T16:16:39.740Z,86.60
2019-02-02T16:19:08.107Z,88.67
2019-02-02T16:21:36.537Z,85.30
2019-02-02T16:24:05.375Z,89.97
2019-02-02T16:26:33.924Z,87.97
2019-02-02T16:29:02.421Z,85.80
2019-02-02T16:31:31.540Z,85.93
2019-02-02T16:34:02.405Z,85.47
2019-02-02T16:36:30.647Z,88.83
2019-02-02T16:38:59.160Z,86.10
2019-02-02T16:41:27.771Z,88.30
2019-02-02T16:43:56.097Z,86.43
2019-02-02T16:46:24.584Z,84.20
2019-02-02T16:48:53.421Z,86.30
2019-02-02T16:51:21.815Z,87.20
2019-02-02T16:53:53.162Z,84.73
2019-02-02T16:56:21.466Z,84.90
2019-02-02T16:58:50.563Z,82.37
2019-02-02T17:01:19.388Z,86.73
2019-02-02T17:03:48.365Z,83.30
2019-02-02T17:06:19.225Z,84.63
2019-02-02T17:08:48.425Z,82.37
2019-02-02T17:11:16.869Z,84.87
2019-02-02T17:13:45.320Z,84.40
2019-02-02T17:16:14.413Z,84.63
2019-02-02T17:18:43.310Z,84.07
2019-02-02T17:21:12.024Z,84.97
2019-02-02T17:23:40.128Z,83.07
2019-02-02T17:26:09.040Z,89.77
2019-02-02T17:28:37.649Z,86.77
2019-02-02T17:31:06.551Z,85.37
2019-02-02T17:33:35.281Z,86.07
2019-02-02T17:36:04.200Z,87.90
2019-02-02T17:38:32.141Z,87.03
2019-02-02T17:41:00.213Z,91.47
2019-02-02T17:43:29.151Z,86.23
2019-02-02T17:45:57.057Z,85.77
2019-02-02T17:50:53.086Z,85.60
2019-02-02T17:53:22.856Z,82.43
2019-02-02T17:55:51.538Z,85.50
2019-02-02T17:58:20.411Z,85.77
2019-02-02T18:00:51.603Z,83.20
2019-02-02T18:03:23.095Z,85.27
2019-02-02T18:05:54.590Z,85.20
2019-02-02T18:08:29.528Z,83.90
2019-02-02T18:11:05.744Z,83.70
2019-02-02T18:16:17.724Z,83.80
2019-02-02T18:18:59.127Z,83.73
2019-02-02T18:21:28.349Z,84.17
2019-02-02T18:24:00.139Z,84.77
2019-02-02T18:26:49.280Z,81.80
2019-02-02T18:29:30.789Z,82.13
2019-02-02T18:32:20.510Z,85.00
2019-02-02T18:35:02.764Z,82.27
2019-02-02T18:37:34.679Z,82.23
2019-02-02T18:40:04.414Z,80.50
2019-02-02T18:42:35.325Z,86.77
2019-02-02T18:45:08.769Z,85.60
2019-02-02T18:48:10.823Z,85.60
2019-02-02T18:50:39.021Z,85.57
2019-02-02T18:53:23.784Z,83.83
2019-02-02T18:55:58.844Z,84.57
2019-02-02T18:58:28.054Z,84.20
2019-02-02T19:00:56.867Z,81.80
2019-02-02T19:03:25.284Z,81.87
2019-02-02T19:05:53.357Z,78.33
2019-02-02T19:08:22.317Z,83.27
2019-02-02T19:10:50.421Z,79.70
2019-02-02T19:13:19.492Z,82.97
2019-02-02T19:15:52.052Z,81.37
2019-02-02T19:18:32.680Z,79.30
2019-02-02T19:21:00.809Z,80.03
2019-02-02T19:23:32.484Z,80.57
2019-02-02T19:26:00.736Z,79.83
2019-02-02T19:28:39.387Z,87.87
2019-02-02T19:30:59.220Z,97.47
2019-02-02T19:33:27.371Z,97.87
2019-02-02T19:35:55.802Z,85.97
2019-02-02T19:38:24.251Z,78.87
2019-02-02T19:40:52.323Z,77.17
2019-02-02T19:43:20.220Z,80.60
2019-02-02T19:45:48.129Z,80.20
2019-02-02T19:48:16.527Z,81.97
2019-02-02T19:50:45.112Z,84.30
2019-02-02T19:53:14.050Z,88.30
2019-02-02T19:55:42.301Z,81.07
2019-02-02T19:58:09.982Z,78.37
2019-02-02T20:00:38.345Z,75.37
2019-02-02T20:03:06.935Z,76.00
2019-02-02T20:05:35.412Z,75.80
2019-02-02T20:08:03.569Z,73.43
2019-02-02T20:10:31.845Z,75.50
2019-02-02T20:13:00.315Z,76.17
2019-02-02T20:15:28.382Z,72.73
2019-02-02T20:18:08.657Z,75.13
2019-02-02T20:20:29.671Z,74.03
2019-02-02T20:22:57.690Z,74.67
2019-02-02T20:25:26.349Z,72.50
2019-02-02T20:27:55.011Z,72.87
2019-02-02T20:30:25.410Z,73.53
2019-02-02T20:32:53.876Z,71.07
2019-02-02T20:35:22.142Z,71.87
2019-02-02T20:37:50.243Z,74.30
2019-02-02T20:40:19.883Z,73.07
2019-02-02T20:42:48.169Z,70.37
2019-02-02T20:45:24.270Z,71.60
2019-02-02T20:47:52.910Z,69.90
2019-02-02T20:50:21.002Z,68.67
2019-02-02T20:52:49.358Z,69.67
2019-02-02T20:55:19.666Z,71.37
2019-02-02T20:57:50.281Z,67.73
2019-02-02T21:00:22.408Z,67.23
2019-02-02T21:02:50.515Z,69.67
2019-02-02T21:05:19.979Z,67.80
2019-02-02T21:07:51.057Z,67.13
2019-02-02T21:10:20.313Z,67.47
2019-02-02T21:12:48.143Z,67.43
2019-02-02T21:15:15.741Z,68.07
2019-02-02T21:17:43.345Z,66.53
2019-02-02T21:20:16.192Z,65.43
2019-02-02T21:22:43.651Z,67.03
2019-02-02T21:25:11.878Z,65.47
2019-02-02T21:27:39.645Z,64.70
2019-02-02T21:30:11.158Z,65.03
2019-02-02T21:32:38.770Z,64.60
2019-02-02T21:35:06.721Z,65.17
2019-02-02T21:37:35.186Z,68.27
2019-02-02T21:40:04.277Z,64.07
2019-02-02T21:42:32.088Z,64.60
2019-02-02T21:44:59.769Z,64.00
2019-02-02T21:47:27.739Z,63.40
2019-02-02T21:49:55.525Z,64.63
2019-02-02T21:52:28.415Z,63.33
2019-02-02T21:54:56.456Z,62.83
2019-02-02T21:57:23.962Z,63.30
2019-02-02T21:59:51.850Z,63.80
2019-02-02T22:02:19.518Z,63.40
2019-02-02T22:04:46.969Z,64.43
2019-02-02T22:07:15.158Z,64.80
2019-02-02T22:09:44.086Z,65.23
2019-02-02T22:12:12.244Z,63.77
2019-02-02T22:14:40.238Z,67.20
2019-02-02T22:17:08.116Z,66.17
2019-02-02T22:19:35.545Z,63.67
2019-02-02T22:22:03.658Z,66.90
2019-02-02T22:24:31.965Z,65.00
2019-02-02T22:26:59.517Z,66.87
2019-02-02T22:29:27.584Z,63.00
2019-02-02T22:31:55.642Z,66.60
2019-02-02T22:34:23.262Z,64.47
2019-02-02T22:36:50.976Z,67.07
2019-02-02T22:39:18.845Z,65.47
2019-02-02T22:41:46.410Z,62.60
2019-02-02T22:44:14.332Z,64.53
2019-02-02T22:46:42.124Z,63.57
2019-02-02T22:49:09.993Z,64.50
2019-02-02T22:51:37.802Z,66.13
2019-02-02T22:54:05.315Z,65.53
2019-02-02T22:56:33.404Z,65.30
2019-02-02T22:59:00.943Z,63.70
2019-02-02T23:01:36.148Z,64.53
2019-02-02T23:04:30.976Z,67.43
2019-02-02T23:07:28.313Z,64.20
2019-02-02T23:10:46.600Z,65.00
2019-02-02T23:14:01.806Z,64.60
2019-02-02T23:16:29.877Z,64.70
2019-02-02T23:18:58.964Z,64.13
2019-02-02T23:21:27.127Z,63.77
2019-02-02T23:23:54.878Z,67.20
2019-02-02T23:26:22.335Z,65.87
2019-02-02T23:28:50.254Z,65.13
2019-02-02T23:31:18.032Z,67.20
2019-02-02T23:33:45.917Z,67.73
2019-02-02T23:36:13.703Z,66.17
2019-02-02T23:38:41.670Z,64.27
2019-02-02T23:41:09.188Z,64.33
2019-02-02T23:43:36.684Z,65.87
2019-02-02T23:46:04.696Z,66.70
2019-02-02T23:48:32.455Z,65.37
2019-02-02T23:51:00.777Z,65.93
2019-02-02T23:53:28.540Z,67.20
2019-02-02T23:55:56.331Z,65.23
2019-02-02T23:58:24.091Z,67.43
